createdAt,value
2019-06-10T00:02:42.524Z,0.30
2019-06-10T00:07:46.562Z,0.20
2019-06-10T00:12:51.763Z,0.30
2019-06-10T00:18:18.979Z,0.20
2019-06-10T00:23:04.047Z,0.20
2019-06-10T00:28:09.534Z,0.23
2019-06-10T00:33:31.208Z,0.20
2019-06-10T00:38:35.534Z,0.53
2019-06-10T00:43:41.163Z,0.40
2019-06-10T00:48:45.250Z,0.30
2019-06-10T00:53:51.466Z,0.20
2019-06-10T00:58:54.971Z,0.20
2019-06-10T01:04:01.380Z,0.10
2019-06-10T01:09:06.759Z,0.23
2019-06-10T01:14:12.535Z,0.87
2019-06-10T01:19:16.950Z,0.23
2019-06-10T01:24:22.405Z,0.40
2019-06-10T01:29:26.697Z,0.40
2019-06-10T01:34:31.195Z,0.20
2019-06-10T01:39:35.755Z,0.20
2019-06-10T01:44:41.236Z,0.20
2019-06-10T01:49:47.482Z,0.10
2019-06-10T01:54:51.742Z,0.20
2019-06-10T01:59:55.805Z,0.37
2019-06-10T02:05:01.562Z,0.43
2019-06-10T02:10:06.723Z,0.13
2019-06-10T02:15:12.576Z,0.10
2019-06-10T02:20:18.125Z,0.20
2019-06-10T02:25:22.987Z,0.47
2019-06-10T02:30:41.764Z,0.20
2019-06-10T02:35:43.290Z,0.17
2019-06-10T02:40:43.303Z,0.20
2019-06-10T02:45:46.099Z,0.63
2019-06-10T02:51:05.632Z,0.10
2019-06-10T02:56:12.454Z,0.37
2019-06-10T03:01:17.355Z,0.27
2019-06-10T03:06:30.343Z,0.40
2019-06-10T03:11:32.412Z,0.70
2019-06-10T03:16:33.602Z,0.40
2019-06-10T03:21:37.830Z,0.10
2019-06-10T03:26:42.898Z,0.20
2019-06-10T03:31:48.551Z,0.20
2019-06-10T03:36:53.511Z,0.40
2019-06-10T03:41:57.901Z,0.20
2019-06-10T03:47:02.811Z,0.30
2019-06-10T03:52:07.787Z,0.40
2019-06-10T03:57:12.126Z,0.40
2019-06-10T04:02:17.291Z,0.57
2019-06-10T04:07:26.481Z,0.30
2019-06-10T04:12:29.023Z,0.30
2019-06-10T04:17:33.423Z,0.47
2019-06-10T04:22:37.602Z,0.40
2019-06-10T04:27:42.509Z,0.60
2019-06-10T04:32:46.640Z,0.33
2019-06-10T04:37:52.056Z,0.30
2019-06-10T04:42:56.198Z,0.17
2019-06-10T04:48:02.900Z,0.10
2019-06-10T04:53:06.473Z,0.20
2019-06-10T04:58:12.986Z,0.10
2019-06-10T05:03:16.726Z,0.43
2019-06-10T05:08:21.563Z,0.60
2019-06-10T05:13:27.078Z,0.27
2019-06-10T05:18:33.227Z,0.10
2019-06-10T05:23:38.110Z,0.33
2019-06-10T05:28:43.208Z,0.57
2019-06-10T05:33:47.582Z,0.30
2019-06-10T05:38:52.565Z,0.10
2019-06-10T05:43:56.898Z,0.47
2019-06-10T05:49:03.091Z,0.50
2019-06-10T05:54:07.131Z,0.40
2019-06-10T05:59:12.179Z,0.10
2019-06-10T06:04:16.218Z,0.83
2019-06-10T06:09:22.116Z,0.73
2019-06-10T06:14:27.520Z,0.50
2019-06-10T06:19:33.718Z,1.33
2019-06-10T06:24:38.065Z,0.10
2019-06-10T06:29:43.202Z,0.93
2019-06-10T06:34:47.455Z,0.73
2019-06-10T06:39:52.342Z,0.37
2019-06-10T06:44:57.097Z,0.33
2019-06-10T06:50:02.756Z,0.57
2019-06-10T06:55:07.383Z,0.40
2019-06-10T07:00:37.322Z,0.20
2019-06-10T07:05:18.772Z,0.50
2019-06-10T07:10:23.083Z,0.97
2019-06-10T07:15:41.096Z,0.30
2019-06-10T07:20:45.778Z,0.30
2019-06-10T07:25:50.114Z,0.83
2019-06-10T07:30:55.392Z,0.10
2019-06-10T07:35:59.623Z,0.93
2019-06-10T07:41:03.843Z,0.80
2019-06-10T07:46:08.113Z,0.30
2019-06-10T07:51:13.208Z,0.70
2019-06-10T07:56:18.083Z,0.53
2019-06-10T08:01:23.140Z,0.43
2019-06-10T08:06:27.389Z,0.10
2019-06-10T08:11:35.437Z,0.40
2019-06-10T08:16:39.902Z,0.20
2019-06-10T08:21:47.368Z,0.30
2019-06-10T08:26:50.156Z,0.50
2019-06-10T08:31:54.415Z,0.70
2019-06-10T08:36:58.803Z,0.40
2019-06-10T08:42:03.341Z,0.40
2019-06-10T08:47:07.973Z,0.77
2019-06-10T08:52:12.902Z,0.40
2019-06-10T08:57:17.072Z,0.30
2019-06-10T09:02:23.335Z,0.40
2019-06-10T09:07:32.175Z,0.60
2019-06-10T09:12:36.889Z,0.60
2019-06-10T09:17:44.723Z,0.67
2019-06-10T09:23:11.198Z,0.53
2019-06-10T09:28:02.366Z,0.67
2019-06-10T09:33:06.891Z,0.60
2019-06-10T09:38:10.999Z,0.50
2019-06-10T09:43:15.758Z,0.40
2019-06-10T09:48:22.920Z,1.00
2019-06-10T09:53:38.960Z,0.62
2019-06-10T09:58:33.292Z,1.05
2019-06-10T10:03:37.271Z,0.80
2019-06-10T10:08:45.989Z,0.47
2019-06-10T10:13:49.543Z,0.80
2019-06-10T10:19:00.212Z,0.65
2019-06-10T10:24:07.980Z,0.80
2019-06-10T10:29:07.096Z,0.70
2019-06-10T10:34:13.446Z,0.50
2019-06-10T10:39:16.943Z,0.98
2019-06-10T10:44:21.625Z,0.93
2019-06-10T10:49:25.709Z,0.78
2019-06-10T10:54:36.021Z,0.90
2019-06-10T10:59:36.023Z,0.57
2019-06-10T11:04:44.743Z,0.40
2019-06-10T11:09:50.316Z,0.50
2019-06-10T11:15:00.458Z,0.75
2019-06-10T11:20:03.829Z,0.60
2019-06-10T11:25:08.220Z,1.05
2019-06-10T11:30:12.590Z,0.30
2019-06-10T11:35:17.041Z,0.68
2019-06-10T11:40:22.739Z,0.47
2019-06-10T11:45:26.890Z,1.15
2019-06-10T11:50:33.267Z,0.50
2019-06-10T11:55:44.298Z,0.70
2019-06-10T12:00:50.325Z,1.10
2019-06-10T12:05:58.993Z,0.40
2019-06-10T12:11:02.353Z,0.50
2019-06-10T12:16:58.350Z,0.90
2019-06-10T12:21:18.607Z,0.23
2019-06-10T12:26:23.621Z,0.57
2019-06-10T12:31:27.735Z,0.68
2019-06-10T12:36:32.976Z,0.57
2019-06-10T12:41:37.037Z,0.60
2019-06-10T12:46:43.097Z,0.93
2019-06-10T12:51:46.975Z,0.75
2019-06-10T12:56:52.739Z,0.70
2019-06-10T13:01:58.070Z,0.50
2019-06-10T13:07:05.746Z,0.40
2019-06-10T13:12:12.951Z,0.90
2019-06-10T13:17:17.375Z,0.62
2019-06-10T13:22:23.079Z,0.85
2019-06-10T13:27:27.167Z,0.28
2019-06-10T13:32:32.492Z,0.53
2019-06-10T13:37:38.976Z,0.60
2019-06-10T13:42:43.051Z,0.82
2019-06-10T13:47:47.233Z,0.55
2019-06-10T13:52:52.136Z,1.17
2019-06-10T13:57:56.389Z,0.70
2019-06-10T14:03:05.122Z,1.50
2019-06-10T14:08:09.358Z,0.98
2019-06-10T14:13:15.427Z,1.77
2019-06-10T14:18:18.473Z,0.95
2019-06-10T14:23:42.351Z,1.02
2019-06-10T14:29:06.226Z,0.95
2019-06-10T14:34:16.744Z,0.50
2019-06-10T14:39:37.614Z,0.70
2019-06-10T14:44:52.673Z,0.93
2019-06-10T14:49:57.606Z,0.70
2019-06-10T14:55:03.226Z,1.20
2019-06-10T15:00:09.781Z,0.60
2019-06-10T15:05:17.362Z,0.70
2019-06-10T15:10:23.120Z,0.88
2019-06-10T15:15:26.672Z,0.60
2019-06-10T15:20:32.924Z,0.53
2019-06-10T15:25:49.149Z,1.22
2019-06-10T15:30:43.537Z,1.15
2019-06-10T15:35:47.986Z,1.22
2019-06-10T15:40:53.263Z,0.90
2019-06-10T15:45:57.589Z,0.65
2019-06-10T15:51:03.073Z,0.60
2019-06-10T15:56:22.596Z,0.87
2019-06-10T16:01:16.675Z,1.40
2019-06-10T16:06:20.245Z,0.93
2019-06-10T16:11:27.168Z,0.88
2019-06-10T16:16:32.507Z,1.60
2019-06-10T16:21:37.081Z,1.62
2019-06-10T16:26:41.159Z,1.00
2019-06-10T16:31:45.875Z,1.07
2019-06-10T16:36:49.983Z,0.75
2019-06-10T16:42:12.427Z,1.42
2019-06-10T16:47:16.960Z,1.20
2019-06-10T16:52:24.036Z,1.67
2019-06-10T16:57:58.579Z,0.60
2019-06-10T17:02:52.966Z,1.50
2019-06-10T17:08:14.664Z,0.93
2019-06-10T17:13:18.967Z,0.62
2019-06-10T17:18:24.910Z,1.00
2019-06-10T17:23:35.312Z,1.43
2019-06-10T17:28:36.905Z,1.00
2019-06-10T17:33:42.755Z,0.87
2019-06-10T17:38:46.446Z,1.40
2019-06-10T17:43:52.116Z,0.70
2019-06-10T17:48:56.371Z,0.73
2019-06-10T17:54:18.708Z,0.83
2019-06-10T17:59:24.067Z,1.20
2019-06-10T18:04:29.715Z,0.93
2019-06-10T18:09:36.920Z,1.20
2019-06-10T18:14:39.881Z,1.03
2019-06-10T18:19:44.216Z,1.43
2019-06-10T18:24:52.332Z,1.20
2019-06-10T18:29:56.622Z,0.60
2019-06-10T18:35:02.933Z,1.00
2019-06-10T18:40:07.751Z,0.63
2019-06-10T18:45:13.430Z,0.97
2019-06-10T18:50:17.886Z,0.60
2019-06-10T18:55:22.665Z,1.00
2019-06-10T19:00:44.978Z,0.80
2019-06-10T19:05:36.298Z,1.30
2019-06-10T19:10:43.177Z,0.70
2019-06-10T19:15:52.965Z,1.10
2019-06-10T19:21:04.166Z,0.93
2019-06-10T19:26:09.093Z,1.27
2019-06-10T19:31:16.280Z,1.07
2019-06-10T19:36:23.651Z,1.53
2019-06-10T19:41:33.311Z,1.57
2019-06-10T19:46:42.802Z,1.87
2019-06-10T19:51:47.142Z,1.27
2019-06-10T19:56:52.460Z,1.27
2019-06-10T20:01:58.409Z,1.23
2019-06-10T20:07:03.649Z,0.93
2019-06-10T20:12:08.343Z,1.10
2019-06-10T20:17:13.785Z,1.00
2019-06-10T20:22:22.679Z,1.23
2019-06-10T20:27:26.108Z,0.80
2019-06-10T20:32:30.283Z,1.07
2019-06-10T20:37:35.098Z,1.00
2019-06-10T20:42:48.739Z,1.00
2019-06-10T20:47:54.336Z,0.87
2019-06-10T20:53:13.811Z,1.10
2019-06-10T20:58:07.445Z,0.70
2019-06-10T21:03:11.577Z,0.70
2019-06-10T21:08:17.226Z,1.13
2019-06-10T21:13:22.654Z,1.17
2019-06-10T21:18:27.060Z,1.07
2019-06-10T21:23:31.415Z,1.70
2019-06-10T21:28:35.505Z,1.07
2019-06-10T21:33:43.793Z,0.57
2019-06-10T21:38:49.354Z,0.93
2019-06-10T21:43:59.250Z,1.03
2019-06-10T21:49:00.194Z,1.00
2019-06-10T21:54:05.145Z,1.50
2019-06-10T21:59:10.014Z,2.20
2019-06-10T22:04:15.466Z,1.03
2019-06-10T22:09:19.896Z,1.80
2019-06-10T22:14:24.373Z,1.97
2019-06-10T22:19:28.498Z,0.93
2019-06-10T22:24:33.704Z,1.40
2019-06-10T22:29:37.748Z,1.70
2019-06-10T22:34:42.194Z,1.23
2019-06-10T22:39:47.699Z,2.40
2019-06-10T22:44:54.490Z,1.10
2019-06-10T22:49:59.990Z,0.97
2019-06-10T22:55:04.121Z,1.70
2019-06-10T23:00:08.913Z,2.33
2019-06-10T23:05:17.180Z,1.57
2019-06-10T23:10:22.691Z,2.03
2019-06-10T23:15:26.354Z,2.10
2019-06-10T23:20:30.354Z,2.27
2019-06-10T23:25:34.561Z,1.63
2019-06-10T23:30:39.004Z,2.77
2019-06-10T23:35:43.247Z,2.97
2019-06-10T23:40:47.331Z,2.20
2019-06-10T23:45:51.646Z,2.20
2019-06-10T23:50:57.753Z,1.40
2019-06-10T23:56:04.678Z,1.43
